Time;durP1;ratioP1;P1;durP2;ratioP2;P2;SDS_P1;SDS_P2;PMS_P1;PMS_P2;Temp;Humidity;BMP_temperature;BMP_pressure;BME280_temperature;BME280_humidity;BME280_pressure;Samples;Min_cycle;Max_cycle;Signal;HPM_P1;HPM_P2
2022/07/10 00:00:36;;;;;;;58.53;49.22;;;23.80;57.20;;;;;;5015164;27;91470;-54
2022/07/10 00:03:02;;;;;;;59.53;49.45;;;23.80;57.10;;;;;;5012365;27;91007;-54
2022/07/10 00:05:28;;;;;;;59.72;49.58;;;23.80;57.10;;;;;;5014676;27;90704;-54
2022/07/10 00:07:54;;;;;;;57.75;49.25;;;23.80;57.10;;;;;;5013770;27;90912;-55
2022/07/10 00:10:21;;;;;;;59.03;49.55;;;23.80;57.10;;;;;;5017252;27;93975;-53
2022/07/10 00:12:48;;;;;;;58.38;49.33;;;23.80;57.20;;;;;;5012588;27;91352;-51
2022/07/10 00:15:14;;;;;;;58.13;49.42;;;23.70;57.10;;;;;;5012272;27;90769;-52
2022/07/10 00:17:40;;;;;;;57.97;49.30;;;23.70;57.00;;;;;;5004295;27;93540;-56
2022/07/10 00:20:07;;;;;;;58.60;49.47;;;23.80;57.20;;;;;;5011645;27;89633;-53
2022/07/10 00:22:37;;;;;;;59.22;49.40;;;23.70;57.10;;;;;;5018387;27;92108;-55
2022/07/10 00:25:04;;;;;;;59.40;49.38;;;23.70;57.10;;;;;;5020914;27;89058;-54
2022/07/10 00:27:29;;;;;;;58.58;49.35;;;23.70;57.10;;;;;;5009459;27;92675;-52
2022/07/10 00:29:55;;;;;;;58.65;49.45;;;23.70;57.20;;;;;;5017326;27;90125;-51
2022/07/10 00:32:21;;;;;;;58.28;49.38;;;23.70;57.20;;;;;;5022979;27;90717;-54
2022/07/10 00:34:47;;;;;;;59.10;49.65;;;23.70;57.10;;;;;;5021915;27;89965;-49
2022/07/10 00:37:12;;;;;;;58.70;49.40;;;23.70;57.10;;;;;;5019435;27;89987;-52
2022/07/10 00:39:38;;;;;;;59.03;49.33;;;23.70;57.10;;;;;;5026032;27;90125;-52
2022/07/10 00:42:12;;;;;;;58.22;49.25;;;23.70;57.20;;;;;;5014420;27;90335;-56
2022/07/10 00:44:38;;;;;;;58.08;49.35;;;23.60;57.20;;;;;;5014132;27;90421;-53
2022/07/10 00:47:05;;;;;;;58.38;49.42;;;23.60;57.10;;;;;;5018084;27;91082;-51
2022/07/10 00:49:32;;;;;;;58.25;49.42;;;23.60;57.10;;;;;;5019501;27;88744;-51
2022/07/10 00:51:59;;;;;;;58.60;49.33;;;23.60;57.10;;;;;;5021942;27;90319;-54
2022/07/10 00:54:25;;;;;;;58.30;49.30;;;23.60;57.20;;;;;;4992157;27;90037;-54
2022/07/10 00:56:51;;;;;;;59.15;49.47;;;23.50;57.20;;;;;;4980191;27;1204640;-52
2022/07/10 00:59:18;;;;;;;57.53;49.08;;;23.60;57.20;;;;;;5017978;27;91848;-53
2022/07/10 01:01:44;;;;;;;58.20;49.25;;;23.60;57.30;;;;;;5018054;27;89989;-55
2022/07/10 01:04:10;;;;;;;57.80;49.28;;;23.50;57.20;;;;;;5003468;27;94165;-53
2022/07/10 01:06:36;;;;;;;58.80;49.53;;;23.60;57.30;;;;;;5009958;27;90611;-55
2022/07/10 01:09:02;;;;;;;58.47;49.17;;;23.50;57.20;;;;;;5008805;27;89760;-56
2022/07/10 01:11:28;;;;;;;58.30;49.35;;;23.50;57.30;;;;;;5014542;27;89919;-54
2022/07/10 01:13:54;;;;;;;58.40;49.25;;;23.50;57.30;;;;;;5022865;27;88763;-51
2022/07/10 01:16:22;;;;;;;59.80;49.80;;;23.40;57.30;;;;;;5016172;27;90961;-53
2022/07/10 01:18:47;;;;;;;58.38;49.22;;;23.40;57.40;;;;;;5013596;27;90734;-53
2022/07/10 01:21:31;;;;;;;57.63;49.00;;;23.40;57.30;;;;;;5013394;27;92888;-56
2022/07/10 01:23:57;;;;;;;58.50;49.35;;;23.40;57.40;;;;;;5009099;27;89702;-51
2022/07/10 01:26:24;;;;;;;57.83;49.47;;;23.40;57.30;;;;;;5009169;27;89834;-56
2022/07/10 01:28:51;;;;;;;58.58;49.30;;;23.40;57.50;;;;;;5023681;27;90803;-51
2022/07/10 01:31:18;;;;;;;58.33;49.47;;;23.40;57.50;;;;;;5029580;27;91930;-53
2022/07/10 01:33:45;;;;;;;59.83;49.38;;;23.40;57.50;;;;;;5020506;27;91380;-56
2022/07/10 01:36:11;;;;;;;57.90;49.40;;;23.40;57.30;;;;;;5008650;27;89681;-56
2022/07/10 01:38:37;;;;;;;57.85;49.30;;;23.40;57.50;;;;;;5011644;27;89489;-55
2022/07/10 01:41:03;;;;;;;58.35;49.40;;;23.40;57.40;;;;;;5014442;27;95100;-52
2022/07/10 01:43:28;;;;;;;58.90;49.58;;;23.30;57.50;;;;;;4997903;27;90078;-56
2022/07/10 01:45:54;;;;;;;58.67;49.30;;;23.30;57.50;;;;;;5021229;27;94295;-53
2022/07/10 01:48:20;;;;;;;58.08;49.38;;;23.30;57.60;;;;;;5023818;27;90435;-54
2022/07/10 01:50:45;;;;;;;57.53;49.15;;;23.30;57.50;;;;;;5002765;27;90095;-53
2022/07/10 01:53:11;;;;;;;58.55;49.50;;;23.30;57.50;;;;;;5019402;27;90557;-54
2022/07/10 01:55:37;;;;;;;58.40;49.55;;;23.20;57.60;;;;;;5023328;27;93435;-54
2022/07/10 01:58:02;;;;;;;58.63;49.28;;;23.20;57.70;;;;;;5017833;27;90193;-54
2022/07/10 02:00:28;;;;;;;58.03;49.20;;;23.20;57.80;;;;;;5007283;27;90169;-52
2022/07/10 02:05:38;;;;;;;57.13;49.05;;;23.20;57.60;;;;;;5005244;27;92555;-53
2022/07/10 02:08:05;;;;;;;57.78;49.28;;;23.20;57.70;;;;;;5018073;27;94089;-56
2022/07/10 02:10:31;;;;;;;58.10;49.65;;;23.20;57.50;;;;;;5017567;27;90926;-55
2022/07/10 02:12:57;;;;;;;58.42;49.55;;;23.20;57.60;;;;;;5020824;27;93147;-52
2022/07/10 02:15:23;;;;;;;58.40;49.25;;;23.20;57.70;;;;;;5008773;27;90337;-56
2022/07/10 02:17:49;;;;;;;57.40;49.15;;;23.10;57.60;;;;;;5007376;27;91990;-52
2022/07/10 02:20:15;;;;;;;57.90;49.45;;;23.20;57.70;;;;;;5013828;27;92687;-52
2022/07/10 02:22:42;;;;;;;57.70;49.40;;;23.10;57.70;;;;;;5013666;27;89858;-50
2022/07/10 02:25:08;;;;;;;58.00;49.50;;;23.10;57.70;;;;;;5024738;27;90325;-53
2022/07/10 02:27:34;;;;;;;57.65;49.53;;;23.10;57.70;;;;;;5025902;27;89377;-56
2022/07/10 02:29:59;;;;;;;58.03;49.28;;;23.10;57.70;;;;;;5016402;27;89507;-56
2022/07/10 02:32:25;;;;;;;58.05;49.35;;;23.10;57.80;;;;;;5024315;27;93235;-55
2022/07/10 02:34:51;;;;;;;59.10;49.20;;;23.10;57.80;;;;;;5016337;27;95637;-54
2022/07/10 02:37:16;;;;;;;57.15;49.08;;;23.10;57.70;;;;;;5003480;27;92103;-53
2022/07/10 02:39:42;;;;;;;58.25;49.42;;;23.10;58.40;;;;;;5009765;27;90752;-52
2022/07/10 02:42:08;;;;;;;57.58;49.15;;;23.00;57.70;;;;;;5023727;27;90670;-51
2022/07/10 02:44:33;;;;;;;58.30;49.05;;;23.00;57.80;;;;;;5023847;27;90554;-56
2022/07/10 02:46:59;;;;;;;57.63;49.22;;;23.00;57.90;;;;;;5005557;27;92169;-54
2022/07/10 02:49:24;;;;;;;57.67;49.47;;;23.00;57.90;;;;;;5028991;27;90291;-53
2022/07/10 02:51:50;;;;;;;57.33;49.15;;;23.00;57.90;;;;;;5019372;27;91736;-55
2022/07/10 02:54:16;;;;;;;58.63;49.50;;;23.00;58.00;;;;;;5018132;27;90230;-53
2022/07/10 02:56:42;;;;;;;57.85;49.47;;;23.00;58.00;;;;;;5009819;27;91227;-56
2022/07/10 02:59:07;;;;;;;57.40;49.35;;;22.90;58.00;;;;;;5025974;27;92817;-56
2022/07/10 03:01:33;;;;;;;59.33;49.35;;;22.90;58.00;;;;;;5017597;27;89748;-56
2022/07/10 03:04:01;;;;;;;58.25;49.33;;;22.90;57.90;;;;;;5005544;27;90481;-55
2022/07/10 03:06:27;;;;;;;57.55;49.13;;;22.90;57.90;;;;;;5021640;27;89899;-49
2022/07/10 03:08:52;;;;;;;57.13;49.33;;;22.90;58.00;;;;;;5006525;27;89584;-55
2022/07/10 03:11:18;;;;;;;57.00;48.88;;;22.90;57.90;;;;;;5004309;27;89540;-57
2022/07/10 03:13:44;;;;;;;58.30;49.40;;;22.90;57.90;;;;;;5016935;27;90543;-54
2022/07/10 03:16:09;;;;;;;58.03;49.25;;;22.90;57.80;;;;;;5022450;27;90121;-56
2022/07/10 03:18:35;;;;;;;58.42;49.42;;;22.90;57.90;;;;;;5018436;27;89791;-55
2022/07/10 03:21:01;;;;;;;58.05;49.42;;;22.80;58.00;;;;;;5024034;27;90107;-54
2022/07/10 03:23:26;;;;;;;58.88;49.13;;;22.90;58.00;;;;;;5029221;27;91654;-54
2022/07/10 03:25:52;;;;;;;60.33;49.25;;;22.80;58.00;;;;;;5025283;27;89891;-50
2022/07/10 03:28:17;;;;;;;57.33;49.17;;;22.80;57.90;;;;;;5019362;27;90733;-53
2022/07/10 03:30:43;;;;;;;58.60;49.22;;;22.80;57.90;;;;;;5004413;27;91555;-54
2022/07/10 03:33:09;;;;;;;59.28;49.38;;;22.80;57.90;;;;;;5017874;27;89594;-55
2022/07/10 03:35:34;;;;;;;58.35;49.55;;;22.80;57.90;;;;;;5013322;27;89845;-54
2022/07/10 03:38:00;;;;;;;58.83;49.45;;;22.80;58.00;;;;;;5015044;27;89610;-52
2022/07/10 03:40:26;;;;;;;57.60;49.25;;;22.80;58.10;;;;;;5022095;27;92134;-55
2022/07/10 03:42:52;;;;;;;57.58;49.17;;;22.80;58.10;;;;;;5020669;27;91632;-54
2022/07/10 03:45:18;;;;;;;58.35;49.35;;;22.70;58.10;;;;;;5017201;27;90795;-55
2022/07/10 03:47:43;;;;;;;57.13;49.10;;;22.80;58.10;;;;;;5018799;27;90958;-56
2022/07/10 03:50:09;;;;;;;57.35;49.50;;;22.70;58.10;;;;;;5010808;27;92717;-53
2022/07/10 03:52:35;;;;;;;58.90;49.35;;;22.70;58.20;;;;;;5023840;27;89784;-52
2022/07/10 03:55:01;;;;;;;57.33;48.92;;;22.70;58.20;;;;;;5010429;27;90944;-53
2022/07/10 04:00:11;;;;;;;58.45;49.47;;;22.70;58.20;;;;;;5010860;27;93919;-55
2022/07/10 04:02:37;;;;;;;59.50;49.55;;;22.70;58.00;;;;;;5021518;27;90137;-55
2022/07/10 04:05:09;;;;;;;58.00;49.47;;;22.70;57.90;;;;;;5012560;27;90674;-52
2022/07/10 04:07:38;;;;;;;57.72;49.38;;;22.70;58.00;;;;;;5010987;27;91823;-55
2022/07/10 04:10:04;;;;;;;58.25;49.45;;;22.70;58.10;;;;;;5020536;27;95082;-54
2022/07/10 04:12:29;;;;;;;57.97;49.25;;;22.70;58.10;;;;;;5025270;27;90918;-53
2022/07/10 04:14:56;;;;;;;57.63;49.30;;;22.70;57.90;;;;;;5023021;27;92993;-51
2022/07/10 04:17:22;;;;;;;57.05;49.42;;;22.70;57.90;;;;;;5027243;27;89987;-52
2022/07/10 04:19:47;;;;;;;57.65;49.58;;;22.80;57.80;;;;;;5035831;27;89922;-54
2022/07/10 04:22:13;;;;;;;60.67;49.65;;;22.80;57.70;;;;;;5027290;27;90794;-49
2022/07/10 04:24:39;;;;;;;58.25;49.42;;;22.80;57.70;;;;;;5018449;27;89771;-51
2022/07/10 04:27:06;;;;;;;58.67;49.83;;;22.80;57.60;;;;;;5015005;27;90078;-51
2022/07/10 04:29:32;;;;;;;58.53;49.40;;;22.80;57.50;;;;;;5014348;27;92283;-52
2022/07/10 04:31:57;;;;;;;60.60;50.10;;;22.80;57.50;;;;;;5023623;27;91025;-54
2022/07/10 04:34:23;;;;;;;58.08;49.20;;;22.80;57.70;;;;;;5010218;27;91852;-55
2022/07/10 04:36:49;;;;;;;57.58;49.22;;;22.70;57.60;;;;;;5024464;27;91229;-53
2022/07/10 04:39:14;;;;;;;57.00;48.97;;;22.80;58.00;;;;;;5016216;27;89870;-54
2022/07/10 04:41:40;;;;;;;57.58;49.55;;;22.80;57.50;;;;;;5025378;27;90571;-54
2022/07/10 04:44:06;;;;;;;59.08;50.20;;;22.80;57.60;;;;;;5006011;27;89998;-51
2022/07/10 04:46:31;;;;;;;60.72;50.10;;;22.80;57.70;;;;;;5020634;27;90213;-56
2022/07/10 04:48:57;;;;;;;57.60;50.00;;;22.80;57.60;;;;;;4998933;27;96936;-54
2022/07/10 04:51:23;;;;;;;57.78;49.33;;;22.80;57.60;;;;;;5018482;27;91289;-54
2022/07/10 04:53:49;;;;;;;58.47;49.88;;;22.80;57.60;;;;;;5012160;27;89648;-55
2022/07/10 04:56:15;;;;;;;58.45;50.17;;;22.80;57.50;;;;;;5016802;27;90332;-54
2022/07/10 04:58:41;;;;;;;59.33;49.90;;;22.80;57.40;;;;;;5021605;27;89853;-53
2022/07/10 05:01:06;;;;;;;60.25;50.08;;;22.80;57.40;;;;;;5015974;27;93704;-53
2022/07/10 05:03:32;;;;;;;60.83;49.95;;;22.90;57.40;;;;;;5018060;27;90576;-54
2022/07/10 05:05:57;;;;;;;57.28;49.15;;;22.90;57.20;;;;;;5010395;27;91395;-54
2022/07/10 05:08:23;;;;;;;60.45;50.35;;;22.90;57.50;;;;;;5018307;27;90503;-55
2022/07/10 05:10:49;;;;;;;57.72;49.72;;;22.90;56.90;;;;;;5023582;27;91211;-54
2022/07/10 05:13:14;;;;;;;58.65;49.85;;;22.90;56.90;;;;;;5018609;27;89733;-52
2022/07/10 05:15:40;;;;;;;59.10;50.05;;;22.90;56.90;;;;;;5033097;27;89989;-52
2022/07/10 05:18:05;;;;;;;57.92;49.47;;;22.90;56.90;;;;;;5017602;27;92884;-56
2022/07/10 05:20:32;;;;;;;58.83;49.78;;;22.90;57.10;;;;;;5011577;27;91569;-54
2022/07/10 05:22:58;;;;;;;58.65;49.58;;;22.90;57.10;;;;;;5018767;27;89625;-54
2022/07/10 05:25:26;;;;;;;57.65;49.42;;;22.80;57.10;;;;;;5018839;27;92286;-53
2022/07/10 05:27:51;;;;;;;58.22;49.42;;;22.90;57.00;;;;;;5016608;27;91888;-54
2022/07/10 05:30:17;;;;;;;58.78;49.88;;;22.90;57.00;;;;;;5012457;27;89917;-55
2022/07/10 05:32:46;;;;;;;57.83;49.55;;;22.90;56.90;;;;;;5027764;27;90218;-55
2022/07/10 05:35:13;;;;;;;58.58;49.55;;;22.90;56.90;;;;;;5025141;27;89898;-54
2022/07/10 05:37:39;;;;;;;57.70;49.63;;;22.90;56.70;;;;;;5019177;27;95140;-55
2022/07/10 05:40:05;;;;;;;57.17;49.17;;;22.90;56.70;;;;;;5009850;27;90924;-54
2022/07/10 05:42:31;;;;;;;58.85;49.22;;;23.00;56.70;;;;;;5012416;27;89143;-52
2022/07/10 05:44:56;;;;;;;57.85;49.38;;;23.00;56.70;;;;;;5016240;27;89605;-55
2022/07/10 05:47:22;;;;;;;58.50;49.72;;;23.00;56.60;;;;;;5021214;27;89897;-56
2022/07/10 05:49:48;;;;;;;57.53;49.42;;;23.00;56.60;;;;;;5012269;27;93005;-56
2022/07/10 05:52:13;;;;;;;58.10;49.15;;;23.00;56.60;;;;;;5024166;27;91675;-56
2022/07/10 05:54:39;;;;;;;58.20;49.22;;;23.00;56.60;;;;;;5007440;27;91005;-56
2022/07/10 05:57:05;;;;;;;57.60;49.33;;;23.00;56.60;;;;;;5015521;27;89684;-56
2022/07/10 05:59:34;;;;;;;57.08;49.20;;;23.10;56.60;;;;;;5012807;27;92077;-51
2022/07/10 06:02:01;;;;;;;57.70;49.45;;;23.00;56.70;;;;;;5012475;27;89912;-55
2022/07/10 06:04:26;;;;;;;57.88;49.15;;;23.00;57.30;;;;;;4993040;27;94656;-55
2022/07/10 06:06:52;;;;;;;58.47;49.20;;;23.00;56.60;;;;;;5022277;27;89958;-53
2022/07/10 06:09:18;;;;;;;57.38;49.45;;;23.00;56.50;;;;;;5023498;27;90086;-53
2022/07/10 06:11:45;;;;;;;57.53;49.28;;;23.00;56.40;;;;;;5033622;27;90110;-52
2022/07/10 06:14:12;;;;;;;58.60;49.33;;;23.10;56.60;;;;;;5025539;27;94318;-56
2022/07/10 06:16:38;;;;;;;59.67;49.60;;;23.00;56.50;;;;;;5016146;27;90070;-56
2022/07/10 06:19:03;;;;;;;59.83;49.17;;;23.10;56.60;;;;;;5012911;27;90610;-56
2022/07/10 06:21:29;;;;;;;57.83;49.55;;;23.10;56.50;;;;;;5022442;27;91287;-53
2022/07/10 06:23:55;;;;;;;56.97;48.90;;;23.10;56.60;;;;;;5015142;27;89496;-56
2022/07/10 06:26:20;;;;;;;58.22;49.33;;;23.10;56.60;;;;;;5011928;27;95040;-56
2022/07/10 06:28:46;;;;;;;57.65;49.05;;;23.10;56.50;;;;;;5027675;27;90962;-54
2022/07/10 06:31:12;;;;;;;58.05;49.17;;;23.10;56.60;;;;;;5010967;27;89568;-52
2022/07/10 06:33:38;;;;;;;57.67;49.15;;;23.10;56.40;;;;;;5010335;27;89862;-53
2022/07/10 06:36:04;;;;;;;58.28;49.28;;;23.10;56.40;;;;;;5015888;27;90759;-53
2022/07/10 06:38:30;;;;;;;60.25;49.53;;;23.10;56.30;;;;;;5017406;27;94095;-55
2022/07/10 06:40:56;;;;;;;58.17;49.35;;;23.10;56.40;;;;;;5009590;27;90154;-55
2022/07/10 06:43:21;;;;;;;57.83;49.22;;;23.20;56.40;;;;;;5000170;27;89516;-56
2022/07/10 06:45:48;;;;;;;58.03;49.33;;;23.10;56.40;;;;;;5015604;27;90002;-52
2022/07/10 06:48:14;;;;;;;57.65;49.17;;;23.20;56.40;;;;;;5017642;27;92633;-54
2022/07/10 06:50:40;;;;;;;57.08;49.03;;;23.20;56.50;;;;;;5013148;27;90147;-52
2022/07/10 06:53:06;;;;;;;58.05;49.25;;;23.20;56.20;;;;;;5014747;27;92803;-56
2022/07/10 06:55:32;;;;;;;57.67;49.13;;;23.20;56.20;;;;;;5026192;27;89325;-53
2022/07/10 06:57:58;;;;;;;57.85;49.05;;;23.20;56.10;;;;;;5017516;27;93831;-56
2022/07/10 07:00:24;;;;;;;58.28;49.15;;;23.20;56.10;;;;;;5007734;27;91219;-56
2022/07/10 07:02:50;;;;;;;60.85;49.42;;;23.20;56.10;;;;;;5022314;27;91186;-53
2022/07/10 07:05:16;;;;;;;57.38;49.17;;;23.20;56.10;;;;;;5030332;27;89506;-55
2022/07/10 07:07:42;;;;;;;58.03;49.42;;;23.20;56.10;;;;;;5017585;27;90118;-55
2022/07/10 07:10:09;;;;;;;59.10;49.42;;;23.20;56.10;;;;;;5024083;27;89979;-56
2022/07/10 07:12:35;;;;;;;58.53;49.45;;;23.30;56.10;;;;;;4990719;27;90329;-51
2022/07/10 07:15:00;;;;;;;58.45;49.20;;;23.30;56.00;;;;;;5023295;27;89805;-54
2022/07/10 07:17:33;;;;;;;58.85;49.30;;;23.20;56.00;;;;;;5008999;27;91311;-56
2022/07/10 07:25:28;;;;;;;58.13;49.22;;;23.30;55.90;;;;;;5024456;27;90232;-53
2022/07/10 07:27:54;;;;;;;59.13;49.50;;;23.30;56.00;;;;;;5025408;27;93436;-50
2022/07/10 07:30:20;;;;;;;58.63;49.47;;;23.30;55.80;;;;;;5019534;27;97396;-53
2022/07/10 07:32:47;;;;;;;57.92;49.05;;;23.30;55.70;;;;;;5011651;27;94914;-54
2022/07/10 07:35:14;;;;;;;58.10;49.35;;;23.40;55.90;;;;;;5016280;27;90492;-54
2022/07/10 07:37:46;;;;;;;59.63;49.28;;;23.40;55.80;;;;;;5022318;27;90297;-55
2022/07/10 07:40:14;;;;;;;58.85;49.50;;;23.40;55.60;;;;;;5018628;27;90853;-56
2022/07/10 07:42:41;;;;;;;57.67;49.10;;;23.40;55.70;;;;;;5017000;27;93151;-54
2022/07/10 07:45:09;;;;;;;58.78;49.22;;;23.40;55.50;;;;;;5021937;27;89940;-53
2022/07/10 07:47:47;;;;;;;57.70;48.97;;;23.40;55.80;;;;;;5027123;27;91111;-52
2022/07/10 07:50:14;;;;;;;58.13;49.35;;;23.40;55.70;;;;;;5020025;27;90199;-56
2022/07/10 07:52:40;;;;;;;58.20;49.38;;;23.40;55.30;;;;;;5015266;27;90885;-56
2022/07/10 07:55:07;;;;;;;57.90;49.47;;;23.40;55.50;;;;;;5012389;27;90045;-54
2022/07/10 07:57:33;;;;;;;59.38;49.45;;;23.40;55.50;;;;;;5012610;27;92854;-55
2022/07/10 07:59:58;;;;;;;58.38;49.42;;;23.40;55.40;;;;;;5015047;27;90050;-55
2022/07/10 08:02:24;;;;;;;58.70;49.40;;;23.50;55.20;;;;;;5019489;27;94786;-56
2022/07/10 08:04:49;;;;;;;58.17;49.35;;;23.50;55.50;;;;;;5031652;27;92789;-55
2022/07/10 08:07:15;;;;;;;59.50;49.35;;;23.50;55.50;;;;;;5015650;27;92551;-51
2022/07/10 08:09:41;;;;;;;58.13;49.30;;;23.50;55.30;;;;;;5021348;27;92412;-56
2022/07/10 08:12:09;;;;;;;59.42;49.42;;;23.50;55.40;;;;;;5006994;27;93470;-52
2022/07/10 08:14:35;;;;;;;58.05;49.30;;;23.50;55.40;;;;;;5022534;27;91099;-54
2022/07/10 08:17:01;;;;;;;58.13;49.35;;;23.50;55.30;;;;;;5014649;27;90583;-56
2022/07/10 08:19:26;;;;;;;58.38;49.30;;;23.50;55.20;;;;;;4987854;27;94063;-53
2022/07/10 08:21:52;;;;;;;58.58;49.53;;;23.50;55.20;;;;;;5024723;27;89910;-54
2022/07/10 08:24:18;;;;;;;59.08;49.63;;;23.50;55.20;;;;;;5023539;27;90113;-50
2022/07/10 08:26:44;;;;;;;58.50;49.63;;;23.60;55.20;;;;;;5032853;27;91172;-51
2022/07/10 08:29:10;;;;;;;58.42;49.33;;;23.50;55.20;;;;;;5011372;27;90327;-52
2022/07/10 08:31:35;;;;;;;58.13;49.45;;;23.60;55.20;;;;;;5015914;27;91956;-53
2022/07/10 08:34:01;;;;;;;58.50;49.72;;;23.60;55.10;;;;;;5003358;27;89575;-53
2022/07/10 08:36:27;;;;;;;58.45;49.42;;;23.60;55.10;;;;;;5014923;27;91130;-56
2022/07/10 08:38:56;;;;;;;58.25;49.22;;;23.60;55.00;;;;;;5019150;27;89699;-55
2022/07/10 08:41:26;;;;;;;59.70;49.35;;;23.60;55.10;;;;;;5013856;27;91047;-52
2022/07/10 08:43:52;;;;;;;59.45;49.22;;;23.60;55.10;;;;;;5027455;27;93356;-53
2022/07/10 08:46:18;;;;;;;58.67;49.60;;;23.60;55.00;;;;;;5020866;27;90688;-56
2022/07/10 08:48:48;;;;;;;58.95;49.53;;;23.60;54.90;;;;;;5018983;27;93459;-56
2022/07/10 08:51:30;;;;;;;58.63;49.50;;;23.60;55.00;;;;;;5014793;27;90454;-56
2022/07/10 08:53:56;;;;;;;;;;;23.60;54.80;;;;;;5023749;27;89830;-54
2022/07/10 08:56:21;;;;;;;60.10;49.50;;;23.60;55.10;;;;;;5022341;27;93495;-56
2022/07/10 08:58:49;;;;;;;58.53;49.25;;;23.70;54.90;;;;;;5026936;27;89742;-56
2022/07/10 09:01:15;;;;;;;58.97;49.72;;;23.60;54.90;;;;;;5032958;27;90265;-56
2022/07/10 09:03:41;;;;;;;59.35;49.47;;;23.70;55.00;;;;;;5010539;27;93965;-48
2022/07/10 09:06:07;;;;;;;58.72;49.40;;;23.70;54.90;;;;;;5017286;27;91854;-55
2022/07/10 09:08:33;;;;;;;58.17;49.45;;;23.70;54.80;;;;;;5018849;27;93276;-56
2022/07/10 09:11:19;;;;;;;58.63;49.45;;;23.70;54.80;;;;;;5020514;27;89580;-53
2022/07/10 09:13:51;;;;;;;58.50;49.55;;;23.70;55.00;;;;;;5021035;27;90500;-54
2022/07/10 09:16:24;;;;;;;58.95;49.42;;;23.60;54.90;;;;;;5027344;27;93503;-54
2022/07/10 09:18:49;;;;;;;58.60;49.45;;;23.70;54.80;;;;;;5010631;27;90988;-55
2022/07/10 09:21:16;;;;;;;59.20;49.45;;;23.70;54.90;;;;;;5014461;27;89827;-56
2022/07/10 09:23:41;;;;;;;58.50;49.42;;;23.70;55.00;;;;;;5017115;27;89327;-55
2022/07/10 09:26:07;;;;;;;58.20;49.40;;;23.70;55.00;;;;;;5024924;27;90131;-55
2022/07/10 09:28:33;;;;;;;58.95;49.67;;;23.70;55.00;;;;;;5010797;27;89700;-53
2022/07/10 09:30:58;;;;;;;58.85;49.50;;;23.70;54.90;;;;;;5013859;27;93468;-56
2022/07/10 09:33:26;;;;;;;59.70;49.47;;;23.70;54.80;;;;;;5015390;27;90425;-54
2022/07/10 09:36:06;;;;;;;58.72;49.72;;;23.70;54.80;;;;;;5022692;27;90105;-54
2022/07/10 09:38:44;;;;;;;59.13;49.63;;;23.70;54.80;;;;;;5018957;27;95553;-54
2022/07/10 09:41:14;;;;;;;59.03;49.63;;;23.80;54.70;;;;;;5015967;27;89946;-54
2022/07/10 09:43:48;;;;;;;58.85;49.63;;;23.80;54.70;;;;;;5017496;27;92443;-57
2022/07/10 09:46:15;;;;;;;59.05;49.85;;;23.80;54.70;;;;;;5015971;27;91049;-54
2022/07/10 09:48:41;;;;;;;58.95;49.55;;;23.80;54.60;;;;;;5020395;27;89899;-51
2022/07/10 09:51:09;;;;;;;58.95;49.65;;;23.80;54.60;;;;;;5009400;27;94252;-56
2022/07/10 09:53:43;;;;;;;59.10;49.58;;;23.90;54.60;;;;;;5018499;27;90476;-55
2022/07/10 09:56:11;;;;;;;60.95;49.88;;;23.90;54.50;;;;;;5020545;27;90580;-56
2022/07/10 09:58:38;;;;;;;59.30;49.53;;;23.90;54.40;;;;;;5025022;27;90147;-54
2022/07/10 10:01:08;;;;;;;59.20;49.75;;;23.90;54.40;;;;;;5020275;27;89770;-53
2022/07/10 10:03:36;;;;;;;59.00;49.55;;;24.00;54.40;;;;;;5017727;27;89911;-57
2022/07/10 10:06:14;;;;;;;59.22;49.83;;;24.00;54.40;;;;;;5014428;27;94654;-53
2022/07/10 10:09:02;;;;;;;59.22;49.97;;;24.00;54.30;;;;;;5014733;27;90392;-55
2022/07/10 10:11:31;;;;;;;59.85;49.63;;;24.00;54.20;;;;;;5017652;27;90634;-54
2022/07/10 10:13:58;;;;;;;59.15;49.88;;;24.00;54.20;;;;;;5031695;27;89124;-55
2022/07/10 10:16:27;;;;;;;59.05;49.85;;;24.00;54.20;;;;;;5023895;27;90034;-56
2022/07/10 10:21:39;;;;;;;59.50;49.53;;;24.10;54.10;;;;;;5009201;27;93188;-55
2022/07/10 10:24:06;;;;;;;58.60;49.63;;;24.10;54.10;;;;;;5021922;27;90333;-52
2022/07/10 10:26:32;;;;;;;59.65;49.75;;;24.10;54.00;;;;;;5020456;27;91332;-54
2022/07/10 10:29:00;;;;;;;59.33;49.85;;;24.10;54.00;;;;;;5018380;27;90256;-54
2022/07/10 10:31:30;;;;;;;59.00;49.88;;;24.10;54.10;;;;;;5016018;27;89866;-54
2022/07/10 10:33:57;;;;;;;58.78;49.65;;;24.10;54.00;;;;;;5014688;27;89557;-56
2022/07/10 10:36:32;;;;;;;59.17;49.72;;;24.20;54.00;;;;;;5026368;27;90023;-56
2022/07/10 10:39:12;;;;;;;59.55;49.67;;;24.20;54.00;;;;;;5022031;27;91297;-55
2022/07/10 10:41:39;;;;;;;59.03;49.47;;;24.10;54.00;;;;;;5019534;27;91268;-55
2022/07/10 10:44:08;;;;;;;59.30;49.75;;;24.20;54.00;;;;;;5014862;27;90895;-56
2022/07/10 10:47:01;;;;;;;59.47;50.05;;;24.20;54.00;;;;;;5021908;27;90984;-55
2022/07/10 10:49:48;;;;;;;59.28;49.83;;;24.20;54.00;;;;;;5017482;27;91616;-56
2022/07/10 10:52:15;;;;;;;59.72;49.88;;;24.20;54.00;;;;;;5021516;27;89961;-55
2022/07/10 10:54:56;;;;;;;59.38;49.90;;;24.20;54.10;;;;;;5028734;27;89964;-55
2022/07/10 10:57:23;;;;;;;59.65;49.78;;;24.20;54.00;;;;;;5017429;27;90415;-55
2022/07/10 10:59:50;;;;;;;59.35;49.90;;;24.20;54.00;;;;;;5008602;27;93539;-56
2022/07/10 11:02:27;;;;;;;59.38;49.95;;;24.20;54.00;;;;;;5016548;27;90411;-55
2022/07/10 11:05:12;;;;;;;59.97;49.95;;;24.20;54.00;;;;;;5009258;27;89100;-56
2022/07/10 11:07:57;;;;;;;59.53;50.00;;;24.20;54.10;;;;;;5007209;27;93727;-53
2022/07/10 11:10:36;;;;;;;59.60;50.03;;;24.20;54.10;;;;;;5029136;27;90054;-55
2022/07/10 11:13:10;;;;;;;59.80;50.15;;;24.30;54.10;;;;;;5027547;27;91441;-56
2022/07/10 11:15:41;;;;;;;59.92;50.00;;;24.30;54.20;;;;;;5021308;27;90100;-52
2022/07/10 11:18:12;;;;;;;60.28;50.08;;;24.30;54.20;;;;;;5022004;27;90130;-56
2022/07/10 11:20:40;;;;;;;59.60;50.10;;;24.30;54.20;;;;;;5014841;27;95496;-53
2022/07/10 11:23:31;;;;;;;59.97;50.10;;;24.30;54.20;;;;;;5022067;27;93495;-54
2022/07/10 11:26:12;;;;;;;59.88;50.08;;;24.30;54.20;;;;;;5018466;27;89677;-53
2022/07/10 11:28:43;;;;;;;60.70;50.23;;;24.30;54.10;;;;;;5018504;27;91263;-52
2022/07/10 11:31:09;;;;;;;60.03;50.25;;;24.30;54.70;;;;;;5016010;27;93827;-55
2022/07/10 11:33:51;;;;;;;60.58;50.25;;;24.30;54.10;;;;;;5017643;27;90545;-55
2022/07/10 11:36:17;;;;;;;;;;;24.30;54.10;;;;;;5017818;27;94384;-55
2022/07/10 11:38:44;;;;;;;59.40;49.95;;;24.30;54.70;;;;;;5021189;27;93844;-56
2022/07/10 11:41:14;;;;;;;59.53;50.05;;;24.40;54.10;;;;;;5019971;27;90933;-56
2022/07/10 11:43:53;;;;;;;59.67;50.13;;;24.40;54.10;;;;;;5018697;27;90817;-54
2022/07/10 11:46:24;;;;;;;59.67;50.25;;;24.40;54.10;;;;;;5006932;27;94378;-55
2022/07/10 11:48:53;;;;;;;59.78;50.05;;;24.40;54.10;;;;;;5026918;27;90372;-52
2022/07/10 11:51:31;;;;;;;59.58;50.08;;;24.40;54.10;;;;;;5027617;27;97623;-53
2022/07/10 11:54:10;;;;;;;59.90;50.13;;;24.40;54.10;;;;;;5019186;27;90017;-56
2022/07/10 11:56:38;;;;;;;59.92;50.15;;;24.40;54.10;;;;;;5023353;27;90386;-52
2022/07/10 11:59:06;;;;;;;59.97;50.15;;;24.40;54.00;;;;;;5021335;27;90239;-56
2022/07/10 12:01:35;;;;;;;60.22;49.95;;;24.40;54.10;;;;;;5014224;27;92686;-53
2022/07/10 12:04:06;;;;;;;59.83;50.08;;;24.40;54.30;;;;;;5011058;27;90655;-56
2022/07/10 12:06:33;;;;;;;60.25;50.15;;;24.50;54.10;;;;;;5034152;27;90065;-55
2022/07/10 12:09:07;;;;;;;59.75;50.08;;;24.50;54.10;;;;;;5027077;27;93406;-56
2022/07/10 12:11:34;;;;;;;59.88;50.13;;;24.50;54.00;;;;;;5019577;27;90360;-55
2022/07/10 12:14:28;;;;;;;59.78;50.10;;;24.50;54.00;;;;;;5018532;27;89388;-53
2022/07/10 12:16:56;;;;;;;59.78;50.05;;;24.50;54.10;;;;;;4997918;27;90034;-52
2022/07/10 12:19:30;;;;;;;60.38;50.22;;;24.50;54.00;;;;;;5015992;27;91005;-56
2022/07/10 12:21:57;;;;;;;60.95;50.25;;;24.50;54.00;;;;;;5018463;27;88947;-56
2022/07/10 12:24:24;;;;;;;60.22;50.22;;;24.50;54.00;;;;;;5016679;27;89898;-51
2022/07/10 12:26:51;;;;;;;59.85;50.05;;;24.50;54.00;;;;;;5019702;27;89823;-55
2022/07/10 12:29:24;;;;;;;59.85;50.13;;;24.50;54.00;;;;;;5000176;27;91918;-54
2022/07/10 12:31:54;;;;;;;59.90;50.25;;;24.50;54.00;;;;;;5013571;27;93692;-54
2022/07/10 12:34:32;;;;;;;59.53;50.03;;;24.50;54.00;;;;;;5010011;27;94318;-54
2022/07/10 12:36:58;;;;;;;60.17;50.28;;;24.50;54.10;;;;;;5016590;27;89900;-54
2022/07/10 12:39:24;;;;;;;60.13;50.25;;;24.50;54.10;;;;;;5025843;27;91785;-56
2022/07/10 12:41:58;;;;;;;59.95;50.15;;;24.50;54.10;;;;;;5031995;27;90557;-56
2022/07/10 12:44:49;;;;;;;60.03;50.20;;;24.50;54.10;;;;;;5027034;27;89882;-54